Time;durP1;ratioP1;P1;durP2;ratioP2;P2;SDS_P1;SDS_P2;PMS_P1;PMS_P2;Temp;Humidity;BMP_temperature;BMP_pressure;BME280_temperature;BME280_humidity;BME280_pressure;Samples;Min_cycle;Max_cycle;Signal;HPM_P1;HPM_P2
2023/07/29 00:01:02;;;;;;;10.25;3.88;;;23.50;99.90;;;;;;5089814;27;20102;-47
2023/07/29 00:03:30;;;;;;;12.27;4.82;;;23.40;99.90;;;;;;5118962;27;20036;-48
2023/07/29 00:05:56;;;;;;;15.40;4.50;;;23.40;99.90;;;;;;5121387;27;20378;-49
2023/07/29 00:08:23;;;;;;;10.43;4.10;;;23.40;99.90;;;;;;5120900;27;20031;-51
2023/07/29 00:10:49;;;;;;;11.95;4.40;;;23.40;99.90;;;;;;5122325;27;20023;-48
2023/07/29 00:13:14;;;;;;;9.73;4.38;;;23.40;99.90;;;;;;5126861;27;20100;-48
2023/07/29 00:15:40;;;;;;;11.05;4.88;;;23.30;99.90;;;;;;5077910;27;20035;-45
2023/07/29 00:18:06;;;;;;;8.48;4.75;;;23.40;99.90;;;;;;5123519;27;20046;-47
2023/07/29 00:20:31;;;;;;;12.48;4.90;;;23.20;99.90;;;;;;5082777;28;20047;-47
2023/07/29 00:22:58;;;;;;;12.90;5.07;;;23.10;99.90;;;;;;5128260;27;20108;-47
2023/07/29 00:25:24;;;;;;;7.70;4.80;;;23.00;99.90;;;;;;5089225;27;20043;-47
2023/07/29 00:27:49;;;;;;;19.88;6.28;;;23.00;99.90;;;;;;5126934;27;20412;-49
2023/07/29 00:30:15;;;;;;;11.45;4.95;;;23.00;99.90;;;;;;5106497;27;20023;-47
2023/07/29 00:32:41;;;;;;;20.85;6.30;;;23.00;99.90;;;;;;5090065;27;20031;-49
2023/07/29 00:35:07;;;;;;;14.90;5.10;;;23.00;99.90;;;;;;5121814;27;20069;-48
2023/07/29 00:37:33;;;;;;;21.95;6.07;;;23.10;99.90;;;;;;5078598;27;20024;-48
2023/07/29 00:39:59;;;;;;;12.40;4.90;;;23.00;99.90;;;;;;5090284;27;20038;-46
2023/07/29 00:42:25;;;;;;;16.70;5.82;;;22.90;99.90;;;;;;5121281;27;20034;-46
2023/07/29 00:44:50;;;;;;;19.33;5.80;;;22.90;99.90;;;;;;5120676;27;20459;-47
2023/07/29 00:47:17;;;;;;;22.23;6.15;;;;;;;;;;5130868;27;20023;-45
2023/07/29 00:49:46;;;;;;;19.85;7.32;;;22.90;99.90;;;;;;5121102;27;20073;-46
2023/07/29 00:52:12;;;;;;;17.33;5.63;;;23.00;99.90;;;;;;5085077;27;20374;-49
2023/07/29 00:54:42;;;;;;;11.68;4.95;;;23.00;99.90;;;;;;5090145;27;20082;-49
2023/07/29 00:57:14;;;;;;;12.65;5.45;;;23.00;99.90;;;;;;5129448;27;20055;-50
2023/07/29 00:59:40;;;;;;;12.60;5.47;;;22.90;99.90;;;;;;5119654;27;20019;-47
2023/07/29 01:02:06;;;;;;;17.02;5.53;;;22.90;99.90;;;;;;5083664;28;20024;-46
2023/07/29 01:04:32;;;;;;;11.82;5.15;;;23.00;99.90;;;;;;5120365;28;20079;-47
2023/07/29 01:07:17;;;;;;;23.70;6.55;;;22.90;99.90;;;;;;5120905;28;20102;-48
2023/07/29 01:10:19;;;;;;;12.20;5.60;;;22.90;99.90;;;;;;5129708;28;20087;-51
2023/07/29 01:12:57;;;;;;;14.00;5.30;;;22.80;99.90;;;;;;5122870;28;20036;-47
2023/07/29 01:15:40;;;;;;;15.48;5.88;;;22.80;99.90;;;;;;5130170;27;20525;-46
2023/07/29 01:18:11;;;;;;;14.93;6.07;;;22.70;99.90;;;;;;5129713;27;20126;-49
2023/07/29 01:20:39;;;;;;;22.58;6.07;;;22.70;99.90;;;;;;5120368;27;20483;-50
2023/07/29 01:23:05;;;;;;;19.88;6.60;;;22.70;99.90;;;;;;5126983;27;20024;-47
2023/07/29 01:25:31;;;;;;;13.77;6.38;;;22.80;99.90;;;;;;5134084;27;20725;-46
2023/07/29 01:27:58;;;;;;;14.00;5.78;;;;;;;;;;5119062;27;20027;-46
2023/07/29 01:30:31;;;;;;;14.65;5.93;;;22.40;99.90;;;;;;5129620;27;20062;-48
2023/07/29 01:33:20;;;;;;;10.10;5.00;;;22.20;99.90;;;;;;5128945;27;20470;-48
2023/07/29 01:35:49;;;;;;;13.50;7.13;;;21.70;99.90;;;;;;5130233;27;20078;-49
2023/07/29 01:38:20;;;;;;;13.32;5.60;;;21.60;99.90;;;;;;5127991;27;20019;-49
2023/07/29 01:40:48;;;;;;;13.10;6.07;;;21.60;99.90;;;;;;5130851;27;20063;-48
2023/07/29 01:43:15;;;;;;;17.00;5.80;;;21.60;99.90;;;;;;5124753;27;20050;-48
2023/07/29 01:45:41;;;;;;;12.82;6.28;;;;;;;;;;5092708;27;20087;-48
2023/07/29 01:48:07;;;;;;;13.35;5.82;;;21.90;99.90;;;;;;5129947;27;20111;-49
2023/07/29 01:50:34;;;;;;;9.18;5.47;;;;;;;;;;5132677;27;20027;-46
2023/07/29 01:53:00;;;;;;;9.05;5.53;;;;;;;;;;5128230;27;20071;-47
2023/07/29 01:55:26;;;;;;;15.10;5.93;;;22.00;99.90;;;;;;5107141;27;20437;-49
2023/07/29 01:57:52;;;;;;;12.13;6.53;;;22.10;99.90;;;;;;5133068;27;20119;-48
2023/07/29 02:00:19;;;;;;;10.15;5.93;;;22.10;99.90;;;;;;5054235;27;20110;-48
2023/07/29 02:02:45;;;;;;;13.70;5.95;;;22.10;99.90;;;;;;5070066;27;20031;-49
2023/07/29 02:05:10;;;;;;;13.52;5.22;;;22.20;99.90;;;;;;5124318;27;20479;-47
2023/07/29 02:07:36;;;;;;;10.40;5.22;;;22.10;99.90;;;;;;5123518;27;20055;-49
2023/07/29 02:10:02;;;;;;;17.70;5.82;;;22.10;99.90;;;;;;5087443;28;20046;-47
2023/07/29 02:12:28;;;;;;;11.55;5.15;;;21.90;99.90;;;;;;5053315;28;20063;-48
2023/07/29 02:14:54;;;;;;;13.35;5.32;;;22.00;99.90;;;;;;5124013;27;20034;-46
2023/07/29 02:17:20;;;;;;;10.35;5.60;;;21.90;99.90;;;;;;5130488;27;20347;-47
2023/07/29 02:19:46;;;;;;;11.85;5.53;;;22.00;99.90;;;;;;5085342;28;20123;-49
2023/07/29 02:22:17;;;;;;;12.57;5.82;;;22.00;99.90;;;;;;5073886;28;20107;-47
2023/07/29 02:24:43;;;;;;;15.13;5.50;;;22.10;99.90;;;;;;5104735;28;20035;-50
2023/07/29 02:27:09;;;;;;;10.48;5.40;;;22.20;99.90;;;;;;5071095;28;20051;-46
2023/07/29 02:29:35;;;;;;;9.27;5.35;;;22.20;99.90;;;;;;5053718;28;20476;-49
2023/07/29 02:32:01;;;;;;;7.60;5.88;;;22.20;99.90;;;;;;5016018;28;20134;-45
2023/07/29 02:34:27;;;;;;;13.50;6.03;;;22.10;99.90;;;;;;5105814;28;20495;-49
2023/07/29 02:36:52;;;;;;;11.20;6.18;;;22.00;99.90;;;;;;5107560;28;20114;-48
2023/07/29 02:39:18;;;;;;;9.20;5.78;;;22.00;99.90;;;;;;5105167;28;20035;-48
2023/07/29 02:41:44;;;;;;;9.15;5.70;;;21.90;99.90;;;;;;5106276;28;20030;-49
2023/07/29 02:44:10;;;;;;;7.43;5.22;;;21.80;99.90;;;;;;5067848;28;20032;-49
2023/07/29 02:46:35;;;;;;;8.70;5.40;;;21.60;99.90;;;;;;5071107;28;20088;-46
2023/07/29 02:49:04;;;;;;;11.23;6.05;;;21.50;99.90;;;;;;5105555;28;20028;-46
2023/07/29 02:51:30;;;;;;;10.60;5.68;;;21.40;99.90;;;;;;5111128;28;20028;-49
2023/07/29 02:53:56;;;;;;;11.77;5.50;;;21.40;99.90;;;;;;5100436;28;20099;-46
2023/07/29 02:56:21;;;;;;;10.63;5.57;;;21.30;99.90;;;;;;5107388;28;20095;-49
2023/07/29 02:58:47;;;;;;;11.90;5.80;;;21.30;99.90;;;;;;5102991;28;20028;-47
2023/07/29 03:01:13;;;;;;;9.05;6.15;;;21.40;99.90;;;;;;5105077;28;20030;-47
2023/07/29 03:03:39;;;;;;;12.85;6.65;;;21.50;99.90;;;;;;5074971;28;20028;-46
2023/07/29 03:06:10;;;;;;;14.57;6.40;;;21.50;99.90;;;;;;5106547;28;20022;-49
2023/07/29 03:08:37;;;;;;;13.00;6.17;;;;;;;;;;5097701;28;20364;-48
2023/07/29 03:11:11;;;;;;;11.18;6.72;;;21.50;99.90;;;;;;5110408;28;20296;-50
2023/07/29 03:13:37;;;;;;;10.13;6.03;;;21.50;99.90;;;;;;5101465;28;20069;-48
2023/07/29 03:16:15;;;;;;;10.82;5.75;;;21.60;99.90;;;;;;5052634;28;20122;-47
2023/07/29 03:18:42;;;;;;;15.70;6.25;;;21.70;99.90;;;;;;5110089;28;20097;-48
2023/07/29 03:21:07;;;;;;;10.43;6.95;;;21.60;99.90;;;;;;5116570;27;20043;-47
2023/07/29 03:23:34;;;;;;;12.75;6.13;;;21.60;99.90;;;;;;5129384;27;20023;-45
2023/07/29 03:26:01;;;;;;;15.50;6.38;;;21.60;99.90;;;;;;5095020;27;20083;-48
2023/07/29 03:28:32;;;;;;;14.85;6.43;;;21.60;99.90;;;;;;5129295;27;20015;-48
2023/07/29 03:30:58;;;;;;;16.45;6.55;;;21.60;99.90;;;;;;5121551;27;20638;-49
2023/07/29 03:33:25;;;;;;;12.35;6.30;;;21.60;99.90;;;;;;5121151;27;20390;-47
2023/07/29 03:35:51;;;;;;;11.55;6.65;;;21.70;99.90;;;;;;5114059;27;20682;-49
2023/07/29 03:38:17;;;;;;;11.57;6.97;;;21.70;99.90;;;;;;5125063;27;20118;-48
2023/07/29 03:40:43;;;;;;;10.38;5.90;;;21.70;99.90;;;;;;5118266;27;20103;-49
2023/07/29 03:43:09;;;;;;;8.15;5.63;;;21.70;99.90;;;;;;5089757;27;20046;-47
2023/07/29 03:45:36;;;;;;;10.82;5.78;;;21.60;99.90;;;;;;5126213;27;20023;-48
2023/07/29 03:48:03;;;;;;;12.95;6.13;;;21.60;99.90;;;;;;5123207;27;20027;-48
2023/07/29 03:50:29;;;;;;;9.43;6.07;;;21.70;99.90;;;;;;5126478;27;20023;-48
2023/07/29 03:52:55;;;;;;;11.70;6.38;;;21.70;99.90;;;;;;5087568;27;20054;-48
2023/07/29 03:55:22;;;;;;;9.20;5.60;;;21.80;99.90;;;;;;5127174;27;20481;-47
2023/07/29 03:57:48;;;;;;;9.00;5.82;;;21.80;99.90;;;;;;5129222;27;20093;-46
2023/07/29 04:00:13;;;;;;;11.10;5.63;;;21.80;99.90;;;;;;5132710;27;20058;-50
2023/07/29 04:02:41;;;;;;;28.33;7.32;;;21.80;99.90;;;;;;5088120;27;20035;-49
2023/07/29 04:05:08;;;;;;;13.00;6.80;;;21.80;99.90;;;;;;5126628;27;20031;-46
2023/07/29 04:07:37;;;;;;;22.35;6.90;;;21.90;99.90;;;;;;5120389;27;20412;-46
2023/07/29 04:10:03;;;;;;;16.33;6.78;;;21.90;99.90;;;;;;5123376;27;20540;-45
2023/07/29 04:12:29;;;;;;;14.40;6.38;;;21.90;99.90;;;;;;5086443;27;20074;-47
2023/07/29 04:14:54;;;;;;;12.73;6.70;;;22.00;99.90;;;;;;5086633;27;20063;-48
2023/07/29 04:17:20;;;;;;;16.00;7.78;;;22.00;99.90;;;;;;5085363;27;20394;-51
2023/07/29 04:19:46;;;;;;;12.18;6.43;;;22.10;99.90;;;;;;5123102;27;20475;-46
2023/07/29 04:22:12;;;;;;;11.52;6.32;;;22.00;99.90;;;;;;5070549;27;20436;-49
2023/07/29 04:24:38;;;;;;;9.52;5.93;;;22.10;99.90;;;;;;5122150;27;20471;-46
2023/07/29 04:27:04;;;;;;;14.68;7.47;;;22.20;99.90;;;;;;5126259;27;20114;-49
2023/07/29 04:29:29;;;;;;;9.68;6.28;;;22.20;99.90;;;;;;5080921;28;20394;-48
2023/07/29 04:31:55;;;;;;;12.10;6.68;;;22.20;99.90;;;;;;5086218;27;20043;-47
2023/07/29 04:34:21;;;;;;;12.15;6.38;;;22.10;99.90;;;;;;5125744;27;20509;-49
2023/07/29 04:36:48;;;;;;;14.27;6.97;;;22.10;99.90;;;;;;5093078;27;20043;-48
2023/07/29 04:39:14;;;;;;;10.30;5.72;;;22.10;99.90;;;;;;5123033;27;20043;-49
2023/07/29 04:41:40;;;;;;;11.25;6.25;;;22.10;99.90;;;;;;5121256;27;20027;-49
2023/07/29 04:44:06;;;;;;;14.02;6.05;;;22.10;99.90;;;;;;5088636;27;20031;-46
2023/07/29 04:46:32;;;;;;;11.05;5.97;;;22.10;99.90;;;;;;5085857;28;20555;-45
2023/07/29 04:48:58;;;;;;;10.88;6.93;;;22.20;99.90;;;;;;5085815;28;20039;-49
2023/07/29 04:51:24;;;;;;;9.32;5.80;;;22.20;99.90;;;;;;5103983;28;20404;-49
2023/07/29 04:53:50;;;;;;;9.98;5.82;;;22.20;99.90;;;;;;5120186;27;20055;-45
2023/07/29 04:56:16;;;;;;;7.78;5.32;;;22.20;99.90;;;;;;5121292;27;20022;-46
2023/07/29 04:58:41;;;;;;;9.40;5.95;;;22.20;99.90;;;;;;5125134;27;20023;-46
2023/07/29 05:01:07;;;;;;;11.00;5.88;;;22.20;99.90;;;;;;5115222;27;20031;-45
2023/07/29 05:03:33;;;;;;;10.10;5.95;;;22.30;99.90;;;;;;5076581;28;20036;-49
2023/07/29 05:05:59;;;;;;;6.80;5.05;;;22.40;99.90;;;;;;5121882;28;20019;-47
2023/07/29 05:08:29;;;;;;;8.98;4.90;;;22.50;99.90;;;;;;5129741;28;20418;-46
2023/07/29 05:10:55;;;;;;;10.48;5.45;;;22.60;99.90;;;;;;5120919;28;20471;-49
2023/07/29 05:13:23;;;;;;;46.83;9.00;;;22.70;99.90;;;;;;5123714;28;20027;-47
2023/07/29 05:15:49;;;;;;;9.30;5.78;;;22.70;99.90;;;;;;5092583;28;20043;-48
2023/07/29 05:18:17;;;;;;;9.85;5.63;;;22.60;99.90;;;;;;5124719;28;20039;-48
2023/07/29 05:20:43;;;;;;;10.95;5.03;;;22.70;99.90;;;;;;5120879;28;20151;-47
2023/07/29 05:23:10;;;;;;;14.80;6.75;;;22.90;99.90;;;;;;5090350;28;20414;-47
2023/07/29 05:25:36;;;;;;;7.68;5.10;;;23.00;99.90;;;;;;5116638;28;20031;-47
2023/07/29 05:28:02;;;;;;;12.57;5.45;;;23.00;99.90;;;;;;5128343;28;20023;-46
2023/07/29 05:30:30;;;;;;;7.75;5.28;;;23.00;99.90;;;;;;5076290;28;20035;-47
2023/07/29 05:32:57;;;;;;;7.80;5.20;;;23.10;99.90;;;;;;5127962;28;20027;-47
2023/07/29 05:35:24;;;;;;;10.57;5.07;;;23.10;99.90;;;;;;5125934;28;20030;-46
2023/07/29 05:37:49;;;;;;;7.38;5.30;;;23.10;99.90;;;;;;5126711;28;20024;-50
2023/07/29 05:40:15;;;;;;;8.75;5.45;;;23.10;99.90;;;;;;5074561;28;20027;-47
2023/07/29 05:42:41;;;;;;;9.52;5.70;;;23.20;99.90;;;;;;5122616;28;20047;-47
2023/07/29 05:45:07;;;;;;;6.85;4.40;;;23.30;99.90;;;;;;5084058;28;20032;-48
2023/07/29 05:47:33;;;;;;;7.70;5.35;;;23.30;99.90;;;;;;5119966;28;20083;-48
2023/07/29 05:50:01;;;;;;;9.55;5.50;;;23.30;99.90;;;;;;5130802;28;20031;-49
2023/07/29 05:52:27;;;;;;;9.02;5.50;;;23.20;99.90;;;;;;5125051;28;20548;-46
2023/07/29 05:54:53;;;;;;;5.68;4.35;;;23.30;99.90;;;;;;5117395;28;20054;-48
2023/07/29 05:57:18;;;;;;;9.70;5.20;;;23.40;99.90;;;;;;5087689;28;20083;-48
2023/07/29 05:59:44;;;;;;;12.30;5.55;;;23.70;99.90;;;;;;5115934;28;20027;-47
2023/07/29 06:02:10;;;;;;;7.95;4.80;;;23.80;99.90;;;;;;5119844;27;20023;-46
2023/07/29 06:04:36;;;;;;;8.60;5.03;;;24.00;99.90;;;;;;5052845;27;20031;-51
2023/07/29 06:07:10;;;;;;;10.25;5.60;;;24.10;99.90;;;;;;5123160;27;20034;-49
2023/07/29 06:09:37;;;;;;;9.23;5.18;;;;;;;;;;5068637;27;20035;-51
2023/07/29 06:12:04;;;;;;;7.55;5.28;;;24.50;99.90;;;;;;5066530;27;20059;-47
2023/07/29 06:14:29;;;;;;;9.88;4.57;;;24.60;99.90;;;;;;5088390;27;20077;-48
2023/07/29 06:16:55;;;;;;;9.82;5.70;;;24.70;99.90;;;;;;5127287;27;20482;-48
2023/07/29 06:19:21;;;;;;;11.15;4.75;;;24.80;99.90;;;;;;5124534;27;20027;-49
2023/07/29 06:21:46;;;;;;;8.15;4.97;;;24.80;99.90;;;;;;5122739;27;20070;-47
2023/07/29 06:24:12;;;;;;;8.43;5.20;;;24.70;99.90;;;;;;5119518;27;20493;-50
2023/07/29 06:26:38;;;;;;;8.80;4.22;;;24.70;99.90;;;;;;5132655;27;20055;-49
2023/07/29 06:29:04;;;;;;;14.15;5.15;;;24.80;99.90;;;;;;5125273;27;20038;-47
2023/07/29 06:31:30;;;;;;;12.25;5.20;;;24.90;99.90;;;;;;5124751;27;20107;-50
2023/07/29 06:33:56;;;;;;;9.43;4.50;;;25.00;99.90;;;;;;5128486;27;20382;-49
2023/07/29 06:36:21;;;;;;;8.70;5.05;;;25.30;99.90;;;;;;5082109;27;20498;-49
2023/07/29 06:38:48;;;;;;;9.38;5.82;;;;;;;;;;5118802;27;20050;-48
2023/07/29 06:41:14;;;;;;;7.38;4.40;;;25.40;99.90;;;;;;5071049;28;20035;-48
2023/07/29 06:43:39;;;;;;;10.07;5.43;;;25.80;99.90;;;;;;5095879;27;20458;-50
2023/07/29 06:46:06;;;;;;;10.55;5.40;;;;;;;;;;5124433;27;20023;-48
2023/07/29 06:48:32;;;;;;;9.45;5.65;;;26.00;99.90;;;;;;5119665;27;20030;-47
2023/07/29 06:51:00;;;;;;;10.60;5.15;;;;;;;;;;5127924;27;20031;-50
2023/07/29 06:53:26;;;;;;;9.38;4.95;;;26.30;99.90;;;;;;5125266;27;20486;-49
2023/07/29 06:55:53;;;;;;;6.55;4.30;;;;;;;;;;5120345;27;20047;-49
2023/07/29 06:58:19;;;;;;;10.85;5.30;;;;;;;;;;5087601;27;20146;-49
2023/07/29 07:00:45;;;;;;;9.15;4.53;;;26.40;99.90;;;;;;5124499;27;20028;-48
2023/07/29 07:03:10;;;;;;;7.63;4.25;;;26.40;99.90;;;;;;5127102;27;20406;-48
2023/07/29 07:05:36;;;;;;;6.93;4.00;;;26.30;99.90;;;;;;5132679;27;20114;-49
2023/07/29 07:08:02;;;;;;;8.07;4.18;;;26.30;99.90;;;;;;5130213;27;20359;-49
2023/07/29 07:10:28;;;;;;;7.80;4.68;;;26.20;99.90;;;;;;5059252;28;20059;-50
2023/07/29 07:12:54;;;;;;;8.20;4.03;;;26.10;99.90;;;;;;5083965;27;20039;-47
2023/07/29 07:15:19;;;;;;;6.90;3.95;;;25.90;99.90;;;;;;5126388;27;20379;-48
2023/07/29 07:17:45;;;;;;;9.00;3.95;;;25.90;99.90;;;;;;5124925;27;20378;-48
2023/07/29 07:20:11;;;;;;;9.35;4.22;;;25.90;99.90;;;;;;5122540;27;20066;-49
2023/07/29 07:22:37;;;;;;;9.63;4.10;;;25.90;99.90;;;;;;5045145;27;20424;-50
2023/07/29 07:25:03;;;;;;;8.50;4.10;;;25.90;99.90;;;;;;5124710;27;20114;-47
2023/07/29 07:27:29;;;;;;;8.48;4.07;;;26.00;99.90;;;;;;5089478;27;20047;-48
2023/07/29 07:29:55;;;;;;;6.10;3.42;;;26.30;99.90;;;;;;5124067;27;20125;-49
2023/07/29 07:32:21;;;;;;;6.60;4.63;;;;;;;;;;5117492;27;20034;-48
2023/07/29 07:34:47;;;;;;;4.95;3.35;;;;;;;;;;5118878;27;20023;-50
2023/07/29 07:37:13;;;;;;;6.55;3.75;;;27.00;99.90;;;;;;5124688;27;20038;-50
2023/07/29 07:39:39;;;;;;;6.07;4.03;;;;;;;;;;5120903;27;20039;-47
2023/07/29 07:42:05;;;;;;;6.75;3.83;;;27.40;99.90;;;;;;5119278;27;20034;-50
2023/07/29 07:44:31;;;;;;;5.05;3.40;;;27.60;99.90;;;;;;5066132;27;20130;-47
2023/07/29 07:46:57;;;;;;;6.80;4.68;;;;;;;;;;5125715;27;20114;-50
2023/07/29 07:49:23;;;;;;;11.05;4.00;;;;;;;;;;5120105;27;20092;-50
2023/07/29 07:51:49;;;;;;;8.48;3.80;;;;;;;;;;5125000;27;20047;-51
2023/07/29 07:54:15;;;;;;;8.10;3.42;;;28.20;99.90;;;;;;5123440;27;20027;-47
2023/07/29 07:56:41;;;;;;;9.35;4.47;;;;;;;;;;5054605;27;20046;-50
2023/07/29 07:59:08;;;;;;;9.65;3.83;;;;;;;;;;5121294;27;20520;-48
2023/07/29 08:01:38;;;;;;;7.15;3.70;;;;;;;;;;5116675;27;20031;-50
2023/07/29 08:04:04;;;;;;;16.35;4.30;;;;;;;;;;5120645;27;20055;-49
2023/07/29 08:06:30;;;;;;;11.43;4.22;;;;;;;;;;5126967;27;20019;-49
2023/07/29 08:08:57;;;;;;;12.65;3.85;;;;;;;;;;5117749;27;20034;-50
2023/07/29 08:11:23;;;;;;;13.80;3.90;;;;;;;;;;5119354;27;20028;-50
2023/07/29 08:13:49;;;;;;;7.80;3.83;;;;;;;;;;5118246;27;20036;-47
2023/07/29 08:16:15;;;;;;;15.60;4.13;;;;;;;;;;5069584;27;20456;-48
2023/07/29 08:18:41;;;;;;;10.15;3.88;;;;;;;;;;5125753;27;20478;-51
2023/07/29 08:21:07;;;;;;;10.00;3.60;;;29.20;99.90;;;;;;5091705;27;20047;-50
2023/07/29 08:23:34;;;;;;;12.02;4.07;;;;;;;;;;5123368;27;20043;-48
2023/07/29 08:26:01;;;;;;;11.25;3.30;;;;;;;;;;5121122;27;20390;-51
2023/07/29 08:28:35;;;;;;;6.65;3.40;;;;;;;;;;5120287;27;20084;-51
2023/07/29 08:31:01;;;;;;;8.68;3.45;;;;;;;;;;5124003;27;20058;-50
2023/07/29 08:33:27;;;;;;;10.68;3.38;;;;;;;;;;5123951;27;20024;-52
2023/07/29 08:35:53;;;;;;;6.80;3.40;;;;;;;;;;5119848;27;20034;-49
2023/07/29 08:38:20;;;;;;;11.23;3.60;;;;;;;;;;5123232;27;20506;-51
2023/07/29 08:40:48;;;;;;;9.13;3.42;;;;;;;;;;5130212;27;20031;-50
2023/07/29 08:43:15;;;;;;;7.97;3.20;;;;;;;;;;5122808;27;20152;-48
2023/07/29 08:45:43;;;;;;;9.60;3.90;;;29.80;99.90;;;;;;5121741;27;20054;-48
2023/07/29 08:48:11;;;;;;;7.05;3.20;;;29.90;99.90;;;;;;5118769;27;20035;-50
2023/07/29 08:50:37;;;;;;;11.50;3.53;;;29.90;99.90;;;;;;5119815;27;20027;-51
2023/07/29 08:53:06;;;;;;;6.07;3.42;;;30.00;99.90;;;;;;5124047;27;20046;-49
2023/07/29 08:55:33;;;;;;;6.32;3.10;;;29.90;99.90;;;;;;5069806;28;20047;-48
2023/07/29 08:58:00;;;;;;;7.55;3.20;;;29.60;99.90;;;;;;5121543;27;20023;-48
2023/07/29 09:00:27;;;;;;;5.25;3.03;;;29.70;99.90;;;;;;5121271;28;20042;-47
2023/07/29 09:02:53;;;;;;;8.90;3.97;;;29.80;99.90;;;;;;5118057;27;20122;-51
2023/07/29 09:05:21;;;;;;;8.48;3.38;;;;;;;;;;5119795;28;20059;-47
2023/07/29 09:07:50;;;;;;;7.45;3.60;;;30.30;99.90;;;;;;5117280;28;20032;-51
2023/07/29 09:10:15;;;;;;;9.07;3.53;;;30.30;99.90;;;;;;5119654;28;20039;-50
2023/07/29 09:12:42;;;;;;;6.05;3.75;;;30.30;99.90;;;;;;5122792;28;20036;-49
2023/07/29 09:15:08;;;;;;;9.00;3.83;;;29.80;99.90;;;;;;5118324;28;20063;-51
2023/07/29 09:17:34;;;;;;;5.03;3.20;;;29.80;99.90;;;;;;5124366;28;20046;-48
2023/07/29 09:20:00;;;;;;;7.45;3.50;;;30.30;99.90;;;;;;5121534;28;20554;-50
2023/07/29 09:22:27;;;;;;;6.20;4.03;;;30.40;99.90;;;;;;5121129;28;20027;-50
2023/07/29 09:24:53;;;;;;;7.85;3.83;;;;;;;;;;5123449;28;20038;-48
2023/07/29 09:27:31;;;;;;;6.50;3.58;;;30.80;99.90;;;;;;5070998;28;20043;-54
2023/07/29 09:29:57;;;;;;;6.88;3.08;;;31.00;99.90;;;;;;5125518;28;20107;-51
2023/07/29 09:32:25;;;;;;;5.80;2.90;;;30.90;99.90;;;;;;5129398;28;20092;-48
2023/07/29 09:34:51;;;;;;;5.30;3.20;;;;;;;;;;5122370;27;20083;-47
2023/07/29 09:37:26;;;;;;;5.97;3.63;;;;;;;;;;5124682;27;20034;-48
2023/07/29 09:39:52;;;;;;;8.60;3.70;;;;;;;;;;5086129;27;20073;-50
2023/07/29 09:42:19;;;;;;;5.38;3.55;;;;;;;;;;5128203;27;20080;-51
2023/07/29 09:44:46;;;;;;;7.35;3.70;;;;;;;;;;5122616;27;20084;-47
2023/07/29 09:47:22;;;;;;;5.80;3.25;;;;;;;;;;5128981;27;20438;-51
2023/07/29 09:49:48;;;;;;;4.50;3.08;;;;;;;;;;5128237;27;20035;-48
2023/07/29 09:52:20;;;;;;;7.43;3.30;;;;;;;;;;5120996;27;20110;-49
2023/07/29 09:54:46;;;;;;;9.50;3.20;;;;;;;;;;5123391;27;20431;-51
2023/07/29 09:57:17;;;;;;;6.28;3.28;;;;;;;;;;5132278;27;20566;-50
2023/07/29 09:59:43;;;;;;;6.53;3.63;;;;;;;;;;5100493;27;20387;-50
2023/07/29 10:02:14;;;;;;;7.30;3.75;;;;;;;;;;5125445;27;20130;-50
2023/07/29 10:04:41;;;;;;;5.40;3.05;;;;;;;;;;5076741;28;20032;-49
2023/07/29 10:07:08;;;;;;;6.60;3.58;;;;;;;;;;5073263;28;20032;-49
2023/07/29 10:09:34;;;;;;;7.40;3.38;;;33.50;99.90;;;;;;5084707;28;20070;-50
2023/07/29 10:12:00;;;;;;;6.40;3.67;;;;;;;;;;5079714;28;20441;-50
2023/07/29 10:14:29;;;;;;;7.40;3.90;;;33.30;99.90;;;;;;5082449;28;20131;-50
2023/07/29 10:16:56;;;;;;;5.80;2.75;;;33.10;99.90;;;;;;5079971;28;20040;-52
2023/07/29 10:19:23;;;;;;;5.05;2.92;;;33.30;99.90;;;;;;5078701;28;20051;-51
2023/07/29 10:21:50;;;;;;;6.13;3.10;;;;;;;;;;5062626;28;20101;-47
2023/07/29 10:24:22;;;;;;;4.03;3.03;;;34.00;99.90;;;;;;5084067;28;20040;-51
2023/07/29 10:26:50;;;;;;;7.93;3.20;;;34.00;99.90;;;;;;5081186;28;20562;-51
2023/07/29 10:29:22;;;;;;;4.47;2.85;;;34.00;99.90;;;;;;5081780;28;20127;-48
2023/07/29 10:31:50;;;;;;;6.93;3.42;;;33.90;99.90;;;;;;5088103;28;20103;-47
2023/07/29 10:34:15;;;;;;;5.50;2.80;;;34.20;99.90;;;;;;5084092;28;20431;-52
2023/07/29 10:36:42;;;;;;;4.38;3.05;;;33.60;99.90;;;;;;5085878;27;20036;-51
2023/07/29 10:39:10;;;;;;;4.15;3.20;;;33.90;99.90;;;;;;5120428;27;20065;-52
2023/07/29 10:41:54;;;;;;;4.13;2.45;;;33.30;99.90;;;;;;5119860;27;20111;-52
2023/07/29 10:44:42;;;;;;;4.65;3.08;;;33.30;99.90;;;;;;5068188;28;20391;-51
2023/07/29 10:47:23;;;;;;;7.07;2.80;;;33.00;99.90;;;;;;5118178;27;20043;-52
2023/07/29 10:49:59;;;;;;;4.53;3.15;;;33.40;99.90;;;;;;5082628;27;21042;-51
2023/07/29 10:52:51;;;;;;;5.55;2.95;;;33.60;99.90;;;;;;5116149;27;20037;-52
2023/07/29 10:55:27;;;;;;;4.55;2.40;;;;;;;;;;5119411;27;20494;-52
2023/07/29 10:58:05;;;;;;;5.13;2.60;;;;;;;;;;5122966;27;20487;-51
2023/07/29 11:00:31;;;;;;;2.97;2.58;;;34.60;99.90;;;;;;5117280;27;20063;-50
2023/07/29 11:03:02;;;;;;;7.32;3.50;;;;;;;;;;5116367;27;20034;-52
2023/07/29 11:05:42;;;;;;;5.83;3.10;;;;;;;;;;5128932;27;20020;-51
2023/07/29 11:08:40;;;;;;;5.45;3.00;;;35.50;99.90;;;;;;5123844;27;20062;-50
2023/07/29 11:11:12;;;;;;;3.38;2.28;;;35.20;99.90;;;;;;5061099;27;20200;-51
2023/07/29 11:13:38;;;;;;;4.45;3.05;;;35.50;99.90;;;;;;5131857;27;20106;-51
2023/07/29 11:16:05;;;;;;;6.90;2.60;;;35.40;99.90;;;;;;5075838;28;20043;-50
2023/07/29 11:18:33;;;;;;;3.80;2.72;;;35.90;99.90;;;;;;5092747;27;20521;-51
2023/07/29 11:21:00;;;;;;;5.13;2.97;;;36.00;99.90;;;;;;5119535;27;20150;-51
2023/07/29 11:23:31;;;;;;;4.78;2.80;;;35.70;99.90;;;;;;5071647;27;20044;-50
2023/07/29 11:25:58;;;;;;;6.15;3.42;;;36.10;99.90;;;;;;5128416;27;20411;-51
2023/07/29 11:28:25;;;;;;;5.10;3.38;;;35.80;99.90;;;;;;5127511;27;20060;-50
2023/07/29 11:30:51;;;;;;;4.38;2.83;;;35.50;99.90;;;;;;5122621;27;20019;-52
2023/07/29 11:33:21;;;;;;;8.82;2.92;;;36.10;99.90;;;;;;5125948;27;20027;-50
2023/07/29 11:35:47;;;;;;;4.13;2.50;;;36.40;99.90;;;;;;5126239;27;20052;-50
2023/07/29 11:38:18;;;;;;;5.43;2.83;;;36.10;99.90;;;;;;5043755;27;20139;-49
2023/07/29 11:40:53;;;;;;;5.72;3.08;;;36.50;99.90;;;;;;5085690;27;20039;-51
2023/07/29 11:43:19;;;;;;;8.45;2.83;;;36.30;99.90;;;;;;5121001;27;20613;-50
2023/07/29 11:45:45;;;;;;;6.25;3.42;;;36.40;99.90;;;;;;5130695;27;20039;-49
2023/07/29 11:48:12;;;;;;;6.22;3.08;;;;;;;;;;5121337;27;20031;-49
2023/07/29 11:50:38;;;;;;;4.80;2.85;;;36.60;99.90;;;;;;5068893;27;20038;-50
2023/07/29 11:53:04;;;;;;;4.75;3.15;;;36.50;99.90;;;;;;5047771;27;20039;-50
2023/07/29 11:55:31;;;;;;;3.78;2.58;;;;;;;;;;5126583;27;20019;-51
2023/07/29 11:57:57;;;;;;;5.47;3.20;;;36.20;99.90;;;;;;5121558;27;20092;-51
2023/07/29 12:00:23;;;;;;;3.33;2.70;;;36.50;99.90;;;;;;5117223;27;20378;-50
2023/07/29 12:02:50;;;;;;;3.92;3.08;;;;;;;;;;5123144;27;20467;-49
2023/07/29 12:05:18;;;;;;;6.30;3.00;;;36.00;99.90;;;;;;5129408;27;20023;-50
2023/07/29 12:07:44;;;;;;;6.95;2.97;;;36.20;99.90;;;;;;5124450;27;20035;-50
2023/07/29 12:10:11;;;;;;;7.05;3.15;;;36.30;99.90;;;;;;5056311;27;20122;-50
2023/07/29 12:12:49;;;;;;;5.05;3.10;;;;;;;;;;5121731;27;20381;-51
2023/07/29 12:15:26;;;;;;;5.88;2.85;;;35.80;99.90;;;;;;5123028;27;20079;-50
2023/07/29 12:17:59;;;;;;;5.95;3.03;;;36.20;99.90;;;;;;5091583;28;20110;-51
2023/07/29 12:20:27;;;;;;;4.50;3.10;;;35.80;99.90;;;;;;5128113;27;20145;-51
2023/07/29 12:22:56;;;;;;;4.93;2.85;;;36.10;99.90;;;;;;5116926;27;20067;-50
2023/07/29 12:25:22;;;;;;;5.88;3.00;;;36.50;99.90;;;;;;5082837;28;20039;-52
2023/07/29 12:27:48;;;;;;;5.35;3.50;;;;;;;;;;5034351;28;20410;-50
2023/07/29 12:30:14;;;;;;;5.63;3.00;;;36.60;99.90;;;;;;5068913;28;20480;-50
2023/07/29 12:32:46;;;;;;;6.07;3.50;;;36.20;99.90;;;;;;5051098;28;20085;-50
2023/07/29 12:35:13;;;;;;;6.28;3.83;;;36.20;99.90;;;;;;5065658;28;20059;-49
2023/07/29 12:37:42;;;;;;;4.45;3.20;;;36.40;99.90;;;;;;5067999;28;20133;-50
2023/07/29 12:40:29;;;;;;;6.22;3.20;;;36.50;99.90;;;;;;5067337;28;20082;-50
2023/07/29 12:42:56;;;;;;;5.03;2.65;;;36.50;99.90;;;;;;5066696;28;20045;-50
2023/07/29 12:45:26;;;;;;;6.47;3.60;;;;;;;;;;5067673;28;20618;-50
2023/07/29 12:47:52;;;;;;;6.68;3.30;;;37.10;99.90;;;;;;5068263;28;20079;-51
2023/07/29 12:50:17;;;;;;;10.50;3.20;;;37.30;99.90;;;;;;5067365;28;20064;-51
2023/07/29 12:52:43;;;;;;;5.13;2.80;;;37.30;99.90;;;;;;5065703;28;20075;-49
2023/07/29 12:55:12;;;;;;;4.70;2.85;;;37.30;99.90;;;;;;5066974;28;20036;-51
2023/07/29 12:57:40;;;;;;;4.75;2.83;;;36.90;99.90;;;;;;5036756;28;20567;-49
2023/07/29 13:00:06;;;;;;;4.85;2.90;;;36.80;99.90;;;;;;5119037;27;20126;-51
2023/07/29 13:02:32;;;;;;;15.88;3.95;;;36.60;99.90;;;;;;5081928;28;20044;-50
2023/07/29 13:04:58;;;;;;;8.15;3.60;;;36.90;99.90;;;;;;5118114;28;20034;-49